sensor_id;sensor_type;location;lat;lon;timestamp;P1;durP1;ratioP1;P2;durP2;ratioP2
47523;SDS011;33253;42.144;25.884;2022-09-14T00:00:49;4.60;;;2.33;;
47523;SDS011;33253;42.144;25.884;2022-09-14T00:03:15;4.47;;;2.45;;
47523;SDS011;33253;42.144;25.884;2022-09-14T00:05:41;5.10;;;2.67;;
47523;SDS011;33253;42.144;25.884;2022-09-14T00:08:08;4.53;;;2.80;;
47523;SDS011;33253;42.144;25.884;2022-09-14T00:10:37;4.80;;;2.60;;
47523;SDS011;33253;42.144;25.884;2022-09-14T00:13:07;4.05;;;2.72;;
47523;SDS011;33253;42.144;25.884;2022-09-14T00:15:36;3.75;;;2.83;;
47523;SDS011;33253;42.144;25.884;2022-09-14T00:18:03;9.38;;;2.78;;
47523;SDS011;33253;42.144;25.884;2022-09-14T00:20:29;5.75;;;3.10;;
47523;SDS011;33253;42.144;25.884;2022-09-14T00:22:55;6.13;;;3.00;;
47523;SDS011;33253;42.144;25.884;2022-09-14T00:25:21;5.30;;;3.03;;
47523;SDS011;33253;42.144;25.884;2022-09-14T00:27:46;3.20;;;2.53;;
47523;SDS011;33253;42.144;25.884;2022-09-14T00:30:12;4.97;;;3.05;;
47523;SDS011;33253;42.144;25.884;2022-09-14T00:32:38;8.82;;;3.13;;
47523;SDS011;33253;42.144;25.884;2022-09-14T00:35:03;4.18;;;2.67;;
47523;SDS011;33253;42.144;25.884;2022-09-14T00:37:29;5.20;;;2.83;;
47523;SDS011;33253;42.144;25.884;2022-09-14T00:39:54;4.25;;;2.60;;
47523;SDS011;33253;42.144;25.884;2022-09-14T00:42:20;8.07;;;3.08;;
47523;SDS011;33253;42.144;25.884;2022-09-14T00:47:10;4.80;;;2.80;;
47523;SDS011;33253;42.144;25.884;2022-09-14T00:49:37;5.43;;;2.70;;
47523;SDS011;33253;42.144;25.884;2022-09-14T00:52:08;5.60;;;3.20;;
47523;SDS011;33253;42.144;25.884;2022-09-14T00:54:43;6.10;;;3.45;;
47523;SDS011;33253;42.144;25.884;2022-09-14T00:57:12;4.60;;;2.85;;
47523;SDS011;33253;42.144;25.884;2022-09-14T00:59:40;8.95;;;3.30;;
47523;SDS011;33253;42.144;25.884;2022-09-14T01:02:06;6.30;;;3.17;;
47523;SDS011;33253;42.144;25.884;2022-09-14T01:04:33;6.07;;;3.50;;
47523;SDS011;33253;42.144;25.884;2022-09-14T01:17:29;4.82;;;3.22;;
47523;SDS011;33253;42.144;25.884;2022-09-14T01:31:42;4.32;;;3.30;;
47523;SDS011;33253;42.144;25.884;2022-09-14T01:40:27;4.47;;;3.30;;
47523;SDS011;33253;42.144;25.884;2022-09-14T01:45:58;5.75;;;3.85;;
47523;SDS011;33253;42.144;25.884;2022-09-14T01:48:36;4.80;;;3.55;;
47523;SDS011;33253;42.144;25.884;2022-09-14T01:53:38;5.28;;;3.10;;
47523;SDS011;33253;42.144;25.884;2022-09-14T01:56:19;6.45;;;3.42;;
47523;SDS011;33253;42.144;25.884;2022-09-14T02:01:34;7.13;;;4.30;;
47523;SDS011;33253;42.144;25.884;2022-09-14T02:04:21;5.60;;;3.80;;
47523;SDS011;33253;42.144;25.884;2022-09-14T02:06:55;4.07;;;3.30;;
47523;SDS011;33253;42.144;25.884;2022-09-14T02:09:21;7.82;;;3.85;;
47523;SDS011;33253;42.144;25.884;2022-09-14T02:11:51;7.90;;;3.53;;
47523;SDS011;33253;42.144;25.884;2022-09-14T02:14:18;5.15;;;3.83;;
47523;SDS011;33253;42.144;25.884;2022-09-14T02:16:43;4.93;;;3.45;;
47523;SDS011;33253;42.144;25.884;2022-09-14T02:19:10;5.35;;;3.75;;
47523;SDS011;33253;42.144;25.884;2022-09-14T02:21:37;7.03;;;4.20;;
47523;SDS011;33253;42.144;25.884;2022-09-14T02:24:03;5.47;;;3.90;;
47523;SDS011;33253;42.144;25.884;2022-09-14T02:26:29;5.97;;;3.58;;
47523;SDS011;33253;42.144;25.884;2022-09-14T02:28:55;4.57;;;3.47;;
47523;SDS011;33253;42.144;25.884;2022-09-14T02:31:26;8.20;;;3.88;;
47523;SDS011;33253;42.144;25.884;2022-09-14T02:42:38;8.05;;;4.20;;
47523;SDS011;33253;42.144;25.884;2022-09-14T02:45:32;5.20;;;3.92;;
47523;SDS011;33253;42.144;25.884;2022-09-14T02:48:32;7.30;;;4.22;;
47523;SDS011;33253;42.144;25.884;2022-09-14T02:56:17;7.40;;;4.55;;
47523;SDS011;33253;42.144;25.884;2022-09-14T02:58:44;8.30;;;4.60;;
47523;SDS011;33253;42.144;25.884;2022-09-14T03:01:14;5.60;;;4.38;;
47523;SDS011;33253;42.144;25.884;2022-09-14T03:03:41;8.45;;;4.22;;
47523;SDS011;33253;42.144;25.884;2022-09-14T03:06:07;7.30;;;4.50;;
47523;SDS011;33253;42.144;25.884;2022-09-14T03:08:32;8.32;;;4.80;;
47523;SDS011;33253;42.144;25.884;2022-09-14T03:10:58;10.20;;;4.68;;
47523;SDS011;33253;42.144;25.884;2022-09-14T03:13:24;6.97;;;4.50;;
47523;SDS011;33253;42.144;25.884;2022-09-14T03:15:49;7.95;;;4.40;;
47523;SDS011;33253;42.144;25.884;2022-09-14T03:18:15;9.10;;;4.63;;
47523;SDS011;33253;42.144;25.884;2022-09-14T03:20:42;8.30;;;4.35;;
47523;SDS011;33253;42.144;25.884;2022-09-14T03:23:07;9.85;;;4.07;;
47523;SDS011;33253;42.144;25.884;2022-09-14T03:25:36;8.80;;;4.38;;
47523;SDS011;33253;42.144;25.884;2022-09-14T03:28:02;8.57;;;4.50;;
47523;SDS011;33253;42.144;25.884;2022-09-14T03:30:28;7.90;;;4.15;;
47523;SDS011;33253;42.144;25.884;2022-09-14T03:32:54;6.40;;;4.13;;
47523;SDS011;33253;42.144;25.884;2022-09-14T03:35:19;11.73;;;4.65;;
47523;SDS011;33253;42.144;25.884;2022-09-14T03:37:45;10.27;;;4.38;;
47523;SDS011;33253;42.144;25.884;2022-09-14T03:40:11;6.07;;;4.22;;
47523;SDS011;33253;42.144;25.884;2022-09-14T03:42:46;8.75;;;5.00;;
47523;SDS011;33253;42.144;25.884;2022-09-14T03:45:13;7.78;;;4.05;;
47523;SDS011;33253;42.144;25.884;2022-09-14T03:47:40;8.27;;;4.25;;
47523;SDS011;33253;42.144;25.884;2022-09-14T03:50:07;5.75;;;3.55;;
47523;SDS011;33253;42.144;25.884;2022-09-14T03:52:34;6.82;;;3.58;;
47523;SDS011;33253;42.144;25.884;2022-09-14T03:55:00;6.10;;;3.70;;
47523;SDS011;33253;42.144;25.884;2022-09-14T03:57:27;7.03;;;4.60;;
47523;SDS011;33253;42.144;25.884;2022-09-14T03:59:52;6.47;;;4.03;;
47523;SDS011;33253;42.144;25.884;2022-09-14T04:02:18;6.82;;;4.10;;
47523;SDS011;33253;42.144;25.884;2022-09-14T04:04:43;7.72;;;4.20;;
47523;SDS011;33253;42.144;25.884;2022-09-14T04:07:09;5.07;;;4.00;;
47523;SDS011;33253;42.144;25.884;2022-09-14T04:09:34;6.20;;;4.18;;
47523;SDS011;33253;42.144;25.884;2022-09-14T04:12:00;6.57;;;4.10;;
47523;SDS011;33253;42.144;25.884;2022-09-14T04:14:25;8.85;;;3.97;;
47523;SDS011;33253;42.144;25.884;2022-09-14T04:16:51;8.40;;;3.97;;
47523;SDS011;33253;42.144;25.884;2022-09-14T04:19:16;4.78;;;3.65;;
47523;SDS011;33253;42.144;25.884;2022-09-14T04:21:42;5.25;;;3.67;;
47523;SDS011;33253;42.144;25.884;2022-09-14T04:24:08;6.97;;;4.30;;
47523;SDS011;33253;42.144;25.884;2022-09-14T04:26:36;6.03;;;4.03;;
47523;SDS011;33253;42.144;25.884;2022-09-14T04:29:02;7.43;;;4.18;;
47523;SDS011;33253;42.144;25.884;2022-09-14T04:31:28;4.97;;;3.88;;
47523;SDS011;33253;42.144;25.884;2022-09-14T04:33:54;6.65;;;4.03;;
47523;SDS011;33253;42.144;25.884;2022-09-14T04:36:21;6.93;;;4.60;;
47523;SDS011;33253;42.144;25.884;2022-09-14T04:38:52;5.97;;;4.35;;
47523;SDS011;33253;42.144;25.884;2022-09-14T04:41:19;4.70;;;3.92;;
47523;SDS011;33253;42.144;25.884;2022-09-14T04:43:45;7.00;;;4.20;;
47523;SDS011;33253;42.144;25.884;2022-09-14T04:46:15;11.82;;;4.03;;
47523;SDS011;33253;42.144;25.884;2022-09-14T04:48:48;6.18;;;4.13;;
47523;SDS011;33253;42.144;25.884;2022-09-14T04:51:15;5.55;;;4.00;;
47523;SDS011;33253;42.144;25.884;2022-09-14T04:53:43;6.82;;;4.15;;
47523;SDS011;33253;42.144;25.884;2022-09-14T04:56:10;7.88;;;4.30;;
47523;SDS011;33253;42.144;25.884;2022-09-14T04:58:41;6.75;;;3.85;;
47523;SDS011;33253;42.144;25.884;2022-09-14T05:01:11;6.85;;;4.15;;
47523;SDS011;33253;42.144;25.884;2022-09-14T05:03:41;7.80;;;3.90;;
47523;SDS011;33253;42.144;25.884;2022-09-14T05:06:08;6.45;;;3.75;;
47523;SDS011;33253;42.144;25.884;2022-09-14T05:54:52;8.00;;;3.65;;
47523;SDS011;33253;42.144;25.884;2022-09-14T05:57:19;5.90;;;3.58;;
47523;SDS011;33253;42.144;25.884;2022-09-14T05:59:45;5.45;;;3.53;;
47523;SDS011;33253;42.144;25.884;2022-09-14T06:02:10;4.65;;;3.65;;
47523;SDS011;33253;42.144;25.884;2022-09-14T06:04:36;5.70;;;3.90;;
47523;SDS011;33253;42.144;25.884;2022-09-14T06:07:01;7.18;;;3.95;;
47523;SDS011;33253;42.144;25.884;2022-09-14T06:09:30;4.05;;;3.25;;
47523;SDS011;33253;42.144;25.884;2022-09-14T06:11:55;5.40;;;3.70;;
47523;SDS011;33253;42.144;25.884;2022-09-14T06:14:21;7.10;;;3.47;;
47523;SDS011;33253;42.144;25.884;2022-09-14T06:16:49;5.05;;;3.50;;
47523;SDS011;33253;42.144;25.884;2022-09-14T06:19:14;5.30;;;3.85;;
47523;SDS011;33253;42.144;25.884;2022-09-14T06:21:40;7.22;;;3.78;;
47523;SDS011;33253;42.144;25.884;2022-09-14T06:24:08;6.88;;;3.53;;
47523;SDS011;33253;42.144;25.884;2022-09-14T06:26:34;8.95;;;3.58;;
47523;SDS011;33253;42.144;25.884;2022-09-14T06:28:59;5.53;;;3.25;;
47523;SDS011;33253;42.144;25.884;2022-09-14T06:31:25;7.90;;;3.03;;
47523;SDS011;33253;42.144;25.884;2022-09-14T06:33:50;7.70;;;3.58;;
47523;SDS011;33253;42.144;25.884;2022-09-14T06:36:20;5.68;;;3.70;;
47523;SDS011;33253;42.144;25.884;2022-09-14T06:38:47;5.53;;;3.58;;
47523;SDS011;33253;42.144;25.884;2022-09-14T06:41:15;5.85;;;3.50;;
47523;SDS011;33253;42.144;25.884;2022-09-14T06:43:43;4.10;;;3.03;;
47523;SDS011;33253;42.144;25.884;2022-09-14T06:46:15;9.32;;;3.33;;
47523;SDS011;33253;42.144;25.884;2022-09-14T06:49:05;6.82;;;3.40;;
47523;SDS011;33253;42.144;25.884;2022-09-14T06:51:43;4.28;;;3.30;;
47523;SDS011;33253;42.144;25.884;2022-09-14T06:54:11;5.82;;;3.40;;
47523;SDS011;33253;42.144;25.884;2022-09-14T06:56:39;5.03;;;3.50;;
47523;SDS011;33253;42.144;25.884;2022-09-14T06:59:07;4.53;;;3.10;;
47523;SDS011;33253;42.144;25.884;2022-09-14T07:01:34;5.88;;;3.38;;
47523;SDS011;33253;42.144;25.884;2022-09-14T07:04:00;6.07;;;3.22;;
47523;SDS011;33253;42.144;25.884;2022-09-14T07:06:27;5.70;;;3.03;;
47523;SDS011;33253;42.144;25.884;2022-09-14T07:08:54;4.95;;;3.22;;
47523;SDS011;33253;42.144;25.884;2022-09-14T07:11:21;6.22;;;3.03;;
47523;SDS011;33253;42.144;25.884;2022-09-14T07:16:15;4.30;;;2.80;;
47523;SDS011;33253;42.144;25.884;2022-09-14T07:18:41;5.80;;;3.78;;
47523;SDS011;33253;42.144;25.884;2022-09-14T07:21:07;5.00;;;2.60;;
47523;SDS011;33253;42.144;25.884;2022-09-14T07:23:35;5.10;;;3.00;;
47523;SDS011;33253;42.144;25.884;2022-09-14T07:28:33;7.07;;;2.70;;
47523;SDS011;33253;42.144;25.884;2022-09-14T07:30:59;6.35;;;2.88;;
47523;SDS011;33253;42.144;25.884;2022-09-14T07:33:25;3.88;;;2.75;;
47523;SDS011;33253;42.144;25.884;2022-09-14T07:35:51;5.32;;;2.60;;
47523;SDS011;33253;42.144;25.884;2022-09-14T07:38:17;4.47;;;2.70;;
47523;SDS011;33253;42.144;25.884;2022-09-14T07:40:43;5.50;;;2.65;;
47523;SDS011;33253;42.144;25.884;2022-09-14T07:43:09;5.15;;;2.90;;
47523;SDS011;33253;42.144;25.884;2022-09-14T07:45:35;6.72;;;2.88;;
47523;SDS011;33253;42.144;25.884;2022-09-14T07:48:02;5.15;;;2.60;;
47523;SDS011;33253;42.144;25.884;2022-09-14T07:50:28;3.78;;;2.90;;
47523;SDS011;33253;42.144;25.884;2022-09-14T07:52:53;3.45;;;2.75;;
47523;SDS011;33253;42.144;25.884;2022-09-14T07:55:19;4.03;;;3.03;;
47523;SDS011;33253;42.144;25.884;2022-09-14T07:57:44;5.07;;;2.67;;
47523;SDS011;33253;42.144;25.884;2022-09-14T08:00:11;5.95;;;2.92;;
47523;SDS011;33253;42.144;25.884;2022-09-14T08:02:38;4.88;;;2.90;;
47523;SDS011;33253;42.144;25.884;2022-09-14T08:05:04;6.07;;;2.90;;
47523;SDS011;33253;42.144;25.884;2022-09-14T08:07:29;4.20;;;2.60;;
47523;SDS011;33253;42.144;25.884;2022-09-14T08:09:55;3.47;;;2.63;;
47523;SDS011;33253;42.144;25.884;2022-09-14T08:12:21;5.10;;;2.50;;
47523;SDS011;33253;42.144;25.884;2022-09-14T08:14:46;5.30;;;2.58;;
47523;SDS011;33253;42.144;25.884;2022-09-14T08:17:12;3.55;;;2.88;;
47523;SDS011;33253;42.144;25.884;2022-09-14T08:19:37;3.50;;;2.65;;
47523;SDS011;33253;42.144;25.884;2022-09-14T08:22:05;5.10;;;2.97;;
47523;SDS011;33253;42.144;25.884;2022-09-14T08:24:30;4.95;;;3.67;;
47523;SDS011;33253;42.144;25.884;2022-09-14T08:26:57;6.90;;;3.97;;
47523;SDS011;33253;42.144;25.884;2022-09-14T08:29:23;5.47;;;3.35;;
47523;SDS011;33253;42.144;25.884;2022-09-14T08:31:48;4.38;;;3.50;;
47523;SDS011;33253;42.144;25.884;2022-09-14T08:34:16;4.60;;;3.50;;
47523;SDS011;33253;42.144;25.884;2022-09-14T08:36:43;4.85;;;3.15;;
47523;SDS011;33253;42.144;25.884;2022-09-14T08:39:10;4.82;;;3.58;;
47523;SDS011;33253;42.144;25.884;2022-09-14T08:41:37;3.70;;;3.08;;
47523;SDS011;33253;42.144;25.884;2022-09-14T08:47:03;5.25;;;3.15;;
47523;SDS011;33253;42.144;25.884;2022-09-14T08:52:48;4.57;;;3.15;;
47523;SDS011;33253;42.144;25.884;2022-09-14T08:55:34;5.32;;;3.28;;
47523;SDS011;33253;42.144;25.884;2022-09-14T09:05:57;5.85;;;3.38;;
47523;SDS011;33253;42.144;25.884;2022-09-14T09:11:26;4.80;;;3.05;;
47523;SDS011;33253;42.144;25.884;2022-09-14T09:16:40;5.28;;;2.88;;
47523;SDS011;33253;42.144;25.884;2022-09-14T09:19:10;8.18;;;3.53;;
47523;SDS011;33253;42.144;25.884;2022-09-14T09:21:46;6.32;;;2.63;;
47523;SDS011;33253;42.144;25.884;2022-09-14T09:27:13;3.38;;;2.25;;
47523;SDS011;33253;42.144;25.884;2022-09-14T09:29:40;5.15;;;2.55;;
47523;SDS011;33253;42.144;25.884;2022-09-14T09:32:11;3.47;;;2.15;;
47523;SDS011;33253;42.144;25.884;2022-09-14T09:34:40;5.68;;;2.35;;
47523;SDS011;33253;42.144;25.884;2022-09-14T09:37:10;3.47;;;2.55;;
47523;SDS011;33253;42.144;25.884;2022-09-14T09:39:38;2.85;;;2.28;;
47523;SDS011;33253;42.144;25.884;2022-09-14T09:42:11;7.40;;;3.17;;
47523;SDS011;33253;42.144;25.884;2022-09-14T09:47:31;5.95;;;3.40;;
47523;SDS011;33253;42.144;25.884;2022-09-14T09:52:48;4.70;;;2.45;;
47523;SDS011;33253;42.144;25.884;2022-09-14T09:55:19;3.38;;;2.40;;
47523;SDS011;33253;42.144;25.884;2022-09-14T09:57:46;4.07;;;2.70;;
47523;SDS011;33253;42.144;25.884;2022-09-14T10:02:38;3.45;;;2.45;;
47523;SDS011;33253;42.144;25.884;2022-09-14T10:10:15;13.52;;;10.93;;
47523;SDS011;33253;42.144;25.884;2022-09-14T10:12:49;8.95;;;5.20;;
47523;SDS011;33253;42.144;25.884;2022-09-14T10:25:47;3.15;;;2.08;;
47523;SDS011;33253;42.144;25.884;2022-09-14T10:28:20;5.38;;;2.35;;
47523;SDS011;33253;42.144;25.884;2022-09-14T10:31:03;6.53;;;2.65;;
47523;SDS011;33253;42.144;25.884;2022-09-14T10:33:32;5.43;;;2.45;;
47523;SDS011;33253;42.144;25.884;2022-09-14T10:38:48;2.95;;;2.20;;
47523;SDS011;33253;42.144;25.884;2022-09-14T10:41:23;4.32;;;2.40;;
47523;SDS011;33253;42.144;25.884;2022-09-14T10:43:58;7.20;;;4.25;;
47523;SDS011;33253;42.144;25.884;2022-09-14T10:59:53;3.85;;;2.03;;
47523;SDS011;33253;42.144;25.884;2022-09-14T11:02:35;2.63;;;1.80;;
47523;SDS011;33253;42.144;25.884;2022-09-14T11:08:24;3.85;;;1.60;;
47523;SDS011;33253;42.144;25.884;2022-09-14T11:19:09;3.17;;;1.50;;
47523;SDS011;33253;42.144;25.884;2022-09-14T11:24:46;3.93;;;1.80;;
47523;SDS011;33253;42.144;25.884;2022-09-14T11:27:44;8.23;;;4.25;;
47523;SDS011;33253;42.144;25.884;2022-09-14T11:30:22;6.78;;;3.15;;
47523;SDS011;33253;42.144;25.884;2022-09-14T11:33:00;5.10;;;1.80;;
47523;SDS011;33253;42.144;25.884;2022-09-14T11:38:29;1.95;;;1.58;;
47523;SDS011;33253;42.144;25.884;2022-09-14T11:44:00;2.33;;;1.45;;
47523;SDS011;33253;42.144;25.884;2022-09-14T11:46:34;4.57;;;1.92;;
47523;SDS011;33253;42.144;25.884;2022-09-14T11:54:20;4.63;;;2.28;;
47523;SDS011;33253;42.144;25.884;2022-09-14T11:56:50;2.47;;;1.50;;
47523;SDS011;33253;42.144;25.884;2022-09-14T11:59:44;3.80;;;1.65;;
47523;SDS011;33253;42.144;25.884;2022-09-14T12:12:38;1.65;;;1.40;;
47523;SDS011;33253;42.144;25.884;2022-09-14T12:20:35;3.95;;;1.58;;
47523;SDS011;33253;42.144;25.884;2022-09-14T12:28:41;2.42;;;1.20;;
47523;SDS011;33253;42.144;25.884;2022-09-14T12:34:25;2.15;;;1.20;;
47523;SDS011;33253;42.144;25.884;2022-09-14T12:36:55;1.98;;;1.30;;
47523;SDS011;33253;42.144;25.884;2022-09-14T12:49:45;3.88;;;1.23;;
47523;SDS011;33253;42.144;25.884;2022-09-14T12:52:16;2.45;;;1.52;;
47523;SDS011;33253;42.144;25.884;2022-09-14T12:55:03;1.45;;;1.08;;
47523;SDS011;33253;42.144;25.884;2022-09-14T12:57:48;2.45;;;0.90;;
47523;SDS011;33253;42.144;25.884;2022-09-14T13:00:31;2.78;;;1.08;;
47523;SDS011;33253;42.144;25.884;2022-09-14T13:05:35;2.35;;;1.15;;
47523;SDS011;33253;42.144;25.884;2022-09-14T13:08:06;2.95;;;1.50;;
47523;SDS011;33253;42.144;25.884;2022-09-14T13:10:35;2.40;;;1.40;;
47523;SDS011;33253;42.144;25.884;2022-09-14T13:15:56;2.58;;;1.48;;
47523;SDS011;33253;42.144;25.884;2022-09-14T13:18:28;3.13;;;1.60;;
47523;SDS011;33253;42.144;25.884;2022-09-14T13:21:02;2.53;;;1.60;;
47523;SDS011;33253;42.144;25.884;2022-09-14T13:23:42;1.35;;;1.10;;
47523;SDS011;33253;42.144;25.884;2022-09-14T13:28:44;3.65;;;1.20;;
47523;SDS011;33253;42.144;25.884;2022-09-14T13:31:13;1.65;;;1.08;;
47523;SDS011;33253;42.144;25.884;2022-09-14T13:33:52;2.20;;;1.30;;
47523;SDS011;33253;42.144;25.884;2022-09-14T13:36:21;1.30;;;1.00;;
47523;SDS011;33253;42.144;25.884;2022-09-14T13:38:49;2.40;;;0.98;;
47523;SDS011;33253;42.144;25.884;2022-09-14T13:41:16;3.40;;;1.33;;
47523;SDS011;33253;42.144;25.884;2022-09-14T13:43:43;3.50;;;1.30;;
47523;SDS011;33253;42.144;25.884;2022-09-14T13:46:13;1.58;;;1.10;;
47523;SDS011;33253;42.144;25.884;2022-09-14T13:48:40;4.38;;;1.20;;
47523;SDS011;33253;42.144;25.884;2022-09-14T13:51:08;4.32;;;1.75;;
47523;SDS011;33253;42.144;25.884;2022-09-14T13:53:41;3.13;;;1.40;;
47523;SDS011;33253;42.144;25.884;2022-09-14T13:58:48;2.72;;;1.42;;
47523;SDS011;33253;42.144;25.884;2022-09-14T14:01:36;2.33;;;1.25;;
47523;SDS011;33253;42.144;25.884;2022-09-14T14:04:04;2.53;;;1.10;;
47523;SDS011;33253;42.144;25.884;2022-09-14T14:06:32;1.65;;;1.20;;
47523;SDS011;33253;42.144;25.884;2022-09-14T14:11:29;2.78;;;1.33;;
47523;SDS011;33253;42.144;25.884;2022-09-14T14:19:45;1.30;;;1.20;;
47523;SDS011;33253;42.144;25.884;2022-09-14T14:22:16;3.60;;;1.40;;
47523;SDS011;33253;42.144;25.884;2022-09-14T14:24:43;3.50;;;1.27;;
47523;SDS011;33253;42.144;25.884;2022-09-14T14:27:26;4.00;;;1.30;;
47523;SDS011;33253;42.144;25.884;2022-09-14T14:30:01;2.50;;;1.10;;
47523;SDS011;33253;42.144;25.884;2022-09-14T14:32:37;2.95;;;1.48;;
47523;SDS011;33253;42.144;25.884;2022-09-14T14:35:03;3.70;;;1.52;;
47523;SDS011;33253;42.144;25.884;2022-09-14T14:37:39;2.78;;;1.27;;
47523;SDS011;33253;42.144;25.884;2022-09-14T14:40:05;2.88;;;1.20;;
47523;SDS011;33253;42.144;25.884;2022-09-14T14:42:31;3.90;;;1.23;;
47523;SDS011;33253;42.144;25.884;2022-09-14T14:44:56;1.48;;;1.20;;
47523;SDS011;33253;42.144;25.884;2022-09-14T14:47:22;1.73;;;1.42;;
47523;SDS011;33253;42.144;25.884;2022-09-14T14:49:47;1.95;;;1.23;;
47523;SDS011;33253;42.144;25.884;2022-09-14T14:52:13;1.50;;;1.20;;
47523;SDS011;33253;42.144;25.884;2022-09-14T14:54:38;2.15;;;1.40;;
47523;SDS011;33253;42.144;25.884;2022-09-14T14:57:07;1.88;;;1.40;;
47523;SDS011;33253;42.144;25.884;2022-09-14T14:59:32;2.55;;;1.40;;
47523;SDS011;33253;42.144;25.884;2022-09-14T15:01:58;2.03;;;1.30;;
47523;SDS011;33253;42.144;25.884;2022-09-14T15:04:24;2.67;;;1.40;;
47523;SDS011;33253;42.144;25.884;2022-09-14T15:06:49;3.33;;;1.33;;
47523;SDS011;33253;42.144;25.884;2022-09-14T15:09:16;3.25;;;1.45;;
47523;SDS011;33253;42.144;25.884;2022-09-14T15:11:44;3.50;;;1.60;;
47523;SDS011;33253;42.144;25.884;2022-09-14T15:14:10;3.25;;;1.38;;
47523;SDS011;33253;42.144;25.884;2022-09-14T15:16:41;6.15;;;1.90;;
47523;SDS011;33253;42.144;25.884;2022-09-14T15:19:07;4.00;;;2.08;;
47523;SDS011;33253;42.144;25.884;2022-09-14T15:21:34;3.45;;;1.90;;
47523;SDS011;33253;42.144;25.884;2022-09-14T15:24:00;2.28;;;1.77;;
47523;SDS011;33253;42.144;25.884;2022-09-14T15:26:26;3.03;;;1.50;;
47523;SDS011;33253;42.144;25.884;2022-09-14T15:28:52;6.45;;;1.90;;
47523;SDS011;33253;42.144;25.884;2022-09-14T15:31:17;4.38;;;1.50;;
47523;SDS011;33253;42.144;25.884;2022-09-14T15:33:43;4.05;;;1.60;;
47523;SDS011;33253;42.144;25.884;2022-09-14T15:36:09;5.45;;;1.60;;
47523;SDS011;33253;42.144;25.884;2022-09-14T15:38:35;7.05;;;1.70;;
47523;SDS011;33253;42.144;25.884;2022-09-14T15:41:00;3.40;;;1.65;;
47523;SDS011;33253;42.144;25.884;2022-09-14T15:43:26;5.90;;;3.20;;
47523;SDS011;33253;42.144;25.884;2022-09-14T15:45:51;5.18;;;2.53;;
47523;SDS011;33253;42.144;25.884;2022-09-14T15:48:17;9.07;;;4.72;;
47523;SDS011;33253;42.144;25.884;2022-09-14T15:50:44;16.83;;;8.20;;
47523;SDS011;33253;42.144;25.884;2022-09-14T15:53:11;5.57;;;3.13;;
47523;SDS011;33253;42.144;25.884;2022-09-14T15:55:38;6.00;;;3.22;;
47523;SDS011;33253;42.144;25.884;2022-09-14T15:58:05;5.20;;;2.60;;
47523;SDS011;33253;42.144;25.884;2022-09-14T16:00:31;14.10;;;4.65;;
47523;SDS011;33253;42.144;25.884;2022-09-14T16:02:56;8.55;;;2.95;;
47523;SDS011;33253;42.144;25.884;2022-09-14T16:05:22;6.03;;;2.50;;
47523;SDS011;33253;42.144;25.884;2022-09-14T16:07:51;5.75;;;2.40;;
47523;SDS011;33253;42.144;25.884;2022-09-14T16:10:17;11.07;;;3.55;;
47523;SDS011;33253;42.144;25.884;2022-09-14T16:12:43;13.82;;;5.05;;
47523;SDS011;33253;42.144;25.884;2022-09-14T16:15:08;19.65;;;8.35;;
47523;SDS011;33253;42.144;25.884;2022-09-14T16:17:34;18.25;;;6.50;;
47523;SDS011;33253;42.144;25.884;2022-09-14T16:19:59;13.77;;;4.50;;
47523;SDS011;33253;42.144;25.884;2022-09-14T16:22:25;16.55;;;5.00;;
47523;SDS011;33253;42.144;25.884;2022-09-14T16:24:51;16.33;;;4.28;;
47523;SDS011;33253;42.144;25.884;2022-09-14T16:27:16;18.00;;;4.13;;
47523;SDS011;33253;42.144;25.884;2022-09-14T16:29:42;27.05;;;6.05;;
47523;SDS011;33253;42.144;25.884;2022-09-14T16:32:07;21.02;;;4.32;;
47523;SDS011;33253;42.144;25.884;2022-09-14T16:34:33;18.33;;;4.85;;
47523;SDS011;33253;42.144;25.884;2022-09-14T16:37:00;42.75;;;6.75;;
47523;SDS011;33253;42.144;25.884;2022-09-14T16:39:26;17.08;;;6.10;;
47523;SDS011;33253;42.144;25.884;2022-09-14T16:41:54;20.38;;;6.05;;
47523;SDS011;33253;42.144;25.884;2022-09-14T16:44:21;22.58;;;6.15;;
47523;SDS011;33253;42.144;25.884;2022-09-14T16:46:48;29.35;;;6.03;;
47523;SDS011;33253;42.144;25.884;2022-09-14T16:49:14;27.35;;;8.93;;
47523;SDS011;33253;42.144;25.884;2022-09-14T16:51:40;30.02;;;7.82;;
47523;SDS011;33253;42.144;25.884;2022-09-14T16:54:06;22.13;;;7.63;;
47523;SDS011;33253;42.144;25.884;2022-09-14T16:56:33;31.85;;;8.45;;
47523;SDS011;33253;42.144;25.884;2022-09-14T16:59:00;30.67;;;8.77;;
47523;SDS011;33253;42.144;25.884;2022-09-14T17:01:30;39.88;;;8.10;;
47523;SDS011;33253;42.144;25.884;2022-09-14T17:03:59;28.08;;;8.20;;
47523;SDS011;33253;42.144;25.884;2022-09-14T17:06:28;18.80;;;7.05;;
47523;SDS011;33253;42.144;25.884;2022-09-14T17:08:56;21.60;;;8.68;;
47523;SDS011;33253;42.144;25.884;2022-09-14T17:11:25;23.17;;;7.72;;
47523;SDS011;33253;42.144;25.884;2022-09-14T17:13:52;20.73;;;8.05;;
47523;SDS011;33253;42.144;25.884;2022-09-14T17:16:18;12.23;;;5.57;;
47523;SDS011;33253;42.144;25.884;2022-09-14T17:18:45;23.25;;;8.40;;
47523;SDS011;33253;42.144;25.884;2022-09-14T17:21:16;28.17;;;7.72;;
47523;SDS011;33253;42.144;25.884;2022-09-14T17:23:43;19.67;;;4.73;;
47523;SDS011;33253;42.144;25.884;2022-09-14T17:26:10;19.77;;;6.05;;
47523;SDS011;33253;42.144;25.884;2022-09-14T17:28:37;16.00;;;5.20;;
47523;SDS011;33253;42.144;25.884;2022-09-14T17:31:04;17.48;;;5.82;;
47523;SDS011;33253;42.144;25.884;2022-09-14T17:33:31;10.40;;;4.45;;
47523;SDS011;33253;42.144;25.884;2022-09-14T17:35:59;5.53;;;2.97;;
47523;SDS011;33253;42.144;25.884;2022-09-14T17:38:27;7.35;;;2.75;;
47523;SDS011;33253;42.144;25.884;2022-09-14T17:41:02;4.15;;;2.30;;
47523;SDS011;33253;42.144;25.884;2022-09-14T17:43:30;5.68;;;2.90;;
47523;SDS011;33253;42.144;25.884;2022-09-14T17:45:58;5.95;;;2.78;;
47523;SDS011;33253;42.144;25.884;2022-09-14T17:48:26;4.95;;;2.72;;
47523;SDS011;33253;42.144;25.884;2022-09-14T17:50:55;8.57;;;2.78;;
47523;SDS011;33253;42.144;25.884;2022-09-14T17:53:22;5.05;;;2.72;;
47523;SDS011;33253;42.144;25.884;2022-09-14T17:55:48;4.18;;;2.20;;
47523;SDS011;33253;42.144;25.884;2022-09-14T17:58:13;5.43;;;2.95;;
47523;SDS011;33253;42.144;25.884;2022-09-14T18:00:39;3.53;;;2.50;;
47523;SDS011;33253;42.144;25.884;2022-09-14T18:03:05;2.88;;;2.30;;
47523;SDS011;33253;42.144;25.884;2022-09-14T18:05:32;3.65;;;2.53;;
47523;SDS011;33253;42.144;25.884;2022-09-14T18:07:58;4.80;;;2.55;;
47523;SDS011;33253;42.144;25.884;2022-09-14T18:10:24;6.03;;;2.83;;
47523;SDS011;33253;42.144;25.884;2022-09-14T18:12:49;4.57;;;2.75;;
47523;SDS011;33253;42.144;25.884;2022-09-14T18:15:17;4.40;;;2.55;;
47523;SDS011;33253;42.144;25.884;2022-09-14T18:17:43;18.13;;;3.15;;
47523;SDS011;33253;42.144;25.884;2022-09-14T18:20:11;4.03;;;2.60;;
47523;SDS011;33253;42.144;25.884;2022-09-14T18:22:39;4.03;;;2.40;;
47523;SDS011;33253;42.144;25.884;2022-09-14T18:25:05;4.30;;;2.50;;
47523;SDS011;33253;42.144;25.884;2022-09-14T18:27:32;3.75;;;2.42;;
47523;SDS011;33253;42.144;25.884;2022-09-14T18:29:58;7.28;;;2.80;;
47523;SDS011;33253;42.144;25.884;2022-09-14T18:32:24;7.88;;;3.08;;
47523;SDS011;33253;42.144;25.884;2022-09-14T18:34:49;5.82;;;2.85;;
47523;SDS011;33253;42.144;25.884;2022-09-14T18:37:15;4.13;;;2.80;;
47523;SDS011;33253;42.144;25.884;2022-09-14T18:39:40;6.53;;;2.90;;
47523;SDS011;33253;42.144;25.884;2022-09-14T18:42:06;5.15;;;2.97;;
47523;SDS011;33253;42.144;25.884;2022-09-14T18:44:31;3.88;;;2.72;;
47523;SDS011;33253;42.144;25.884;2022-09-14T18:46:57;8.73;;;2.70;;